Aérodrome :
LOGIN :

S'inscrire | Disclaimer

   EN    FR    IT 

 










Légende :    VFR   VFR Marginal   IFR   IFR Intensif   IFR Très Intensif
Visi : 
Plafond : 
>= 8 km
>= 3000ft
5 à 8 km
1000 à 3000 ft
1500m à 5 km
500 à 1000 ft
800 à 1500m
200 à 500 ft
< 800m
< 200 ft
Symboles :   Orages  Brouillard  Fortes neiges  Fortes précipitations  Vent > 20 kt
SIGMETs :   Divers  Orages  Givrage  Turbulence  Onde Orograph.  Cendres Volcan.






- Altitude de l'aérodrome : 302 ft
- Code IATA : CGN


EDDK - Cologne Bonn

DERNIER METAR :
  • 171750Z 16003KT 3500 BR FEW008 SCT015 00/M00 Q1021 R14L/190195 R06/190195 BECMG 27005KT 8000

METARs EXPIRÉS :
  • 171720Z VRB02KT 2800 BR FEW004 SCT011 01/01 Q1021 R14L/190195 R06/190195 TEMPO 4000 BKN014
  • 171650Z VRB02KT 2500 -RADZ BR BKN003 01/00 Q1021 R14L/290294 R06/99 R14R///99// NOSIG
  • 171620Z VRB02KT 2500 BR BKN003 01/00 Q1021 R14L/290294 R06///99// R14R///99// NOSIG
  • 171550Z VRB02KT 2300 BR BKN004 01/00 Q1020 R14L/290294 R06///99// R14R///99// NOSIG
  • 171520Z VRB01KT 2500 BR OVC004 01/00 Q1020 R14L/290294 R06///99// R14R///99// TEMPO 3500 BKN006

TAF TAF EDDK
Valide du 17 à 18h jusqu'au 19 à 00h UTC


171700Z 1718/1824 VRB03KT 2500 BR SCT005 BKN015
TEMPO 1718/1724 5000 BKN005
BECMG 1719/1722 29006KT
BECMG 1800/1804 8000 BKN006
BECMG 1804/1808 23005KT SCT006 BKN010
BECMG 1808/1811 SCT015 BKN020



MET'MAP, la Météo Aéronautique d'un coup d'oeil ! - Copyright ORBIFLY Décembre 2007 - Disclaimer

ORBIFLY MET'MAP TEAM :

Programmation & Développement : Alexandra Zaïnal
Sur une idée originale de : Baudouin d'Aumeries
Assistance à la programmation : Marc-Olivier Méhu
Soutien technique & logistique : Manuel Goepfert

Contact : metmap@orbifly.com




SOURCES & CREDITS :

   NOAA